Terminal Aerodrome Forecast
Issued by NWS

Home | Current Version | Previous Version | Text Only | Print | Product List | Glossary On
Versions: 1 2 3 4 5 6 7 8 9 10 11 12 13 14 15 16 17
236
FTUS43 KILX 101733
TAFCMI
TAF
KCMI 101733Z 1018/1118 21006KT P6SM OVC060
     FM110000 15006KT P6SM OVC040
     FM111300 16012KT P6SM OVC040
     FM111600 18014G22KT 6SM -SN BR OVC025=

USA.gov is the U.S. government's official web portal to all federal, state and local government web resources and services.